Time;durP1;ratioP1;P1;durP2;ratioP2;P2;SDS_P1;SDS_P2;PMS_P1;PMS_P2;Temp;Humidity;BMP_temperature;BMP_pressure;BME280_temperature;BME280_humidity;BME280_pressure;Samples;Min_cycle;Max_cycle;Signal;HPM_P1;HPM_P2
2023/06/20 00:00:50;;;;;;;13.43;11.07;;;19.20;99.90;;;;;;5095922;28;20055;-80
2023/06/20 00:03:16;;;;;;;14.40;10.43;;;19.20;99.90;;;;;;5079280;28;20414;-70
2023/06/20 00:05:43;;;;;;;14.43;10.70;;;19.10;99.90;;;;;;5114409;28;20105;-70
2023/06/20 00:08:08;;;;;;;14.17;10.87;;;19.10;99.90;;;;;;5079381;28;20050;-69
2023/06/20 00:10:34;;;;;;;13.60;10.47;;;19.10;99.90;;;;;;5114385;28;20047;-70
2023/06/20 00:13:00;;;;;;;12.37;10.70;;;19.10;99.90;;;;;;5095924;28;20130;-70
2023/06/20 00:15:26;;;;;;;14.40;11.03;;;19.00;99.90;;;;;;5095796;28;20044;-70
2023/06/20 00:17:53;;;;;;;13.60;10.80;;;18.90;99.90;;;;;;5096018;28;20132;-71
2023/06/20 00:20:19;;;;;;;14.23;11.93;;;18.90;99.90;;;;;;5095959;28;20495;-70
2023/06/20 00:22:45;;;;;;;14.07;11.00;;;18.80;99.90;;;;;;5096177;28;20049;-70
2023/06/20 00:25:11;;;;;;;13.87;11.10;;;18.80;99.90;;;;;;5095722;28;20507;-70
2023/06/20 00:27:37;;;;;;;16.17;11.67;;;18.70;99.90;;;;;;5095620;28;20076;-70
2023/06/20 00:30:03;;;;;;;15.73;12.10;;;18.70;99.90;;;;;;5095513;28;20494;-70
2023/06/20 00:32:28;;;;;;;17.43;11.67;;;18.70;99.90;;;;;;5095793;28;20378;-70
2023/06/20 00:34:58;;;;;;;13.90;10.43;;;18.70;99.90;;;;;;5113638;28;20047;-72
2023/06/20 00:37:25;;;;;;;13.60;11.03;;;18.70;99.90;;;;;;5095851;28;20090;-70
2023/06/20 00:39:51;;;;;;;14.37;11.93;;;18.60;99.90;;;;;;5113702;28;20043;-70
2023/06/20 00:42:18;;;;;;;12.50;10.60;;;18.60;99.90;;;;;;5113417;28;20130;-70
2023/06/20 00:44:44;;;;;;;14.77;11.23;;;18.60;99.90;;;;;;5095570;28;20044;-69
2023/06/20 00:47:10;;;;;;;15.50;11.40;;;18.50;99.90;;;;;;5095107;28;20059;-70
2023/06/20 00:49:36;;;;;;;14.33;11.03;;;18.50;99.90;;;;;;5113570;28;20088;-69
2023/06/20 00:52:05;;;;;;;13.80;10.77;;;18.50;99.90;;;;;;5078281;28;20039;-70
2023/06/20 00:59:50;;;;;;;15.47;11.80;;;18.50;99.90;;;;;;5568813;22;20115;-77
2023/06/20 01:02:16;;;;;;;14.10;11.77;;;18.50;99.90;;;;;;5031649;28;20056;-78
2023/06/20 01:04:44;;;;;;;21.20;12.53;;;18.50;99.90;;;;;;5032816;28;20042;-78
2023/06/20 01:07:31;;;;;;;13.73;12.23;;;18.50;99.90;;;;;;5033235;28;20127;-78
2023/06/20 01:10:29;;;;;;;15.03;11.77;;;18.50;99.90;;;;;;5032288;28;20057;-78
2023/06/20 01:13:04;;;;;;;15.50;11.87;;;18.50;99.90;;;;;;5032287;28;20057;-78
2023/06/20 01:15:35;;;;;;;17.23;13.30;;;18.50;99.90;;;;;;5033077;28;20133;-78
2023/06/20 01:18:30;;;;;;;15.67;12.53;;;18.50;99.90;;;;;;5033535;28;20103;-78
2023/06/20 01:21:07;;;;;;;18.25;13.00;;;18.50;99.90;;;;;;5032687;28;20049;-80
2023/06/20 01:23:40;;;;;;;19.37;11.80;;;18.60;99.90;;;;;;5032586;28;20045;-75
2023/06/20 01:26:07;;;;;;;15.53;12.63;;;18.60;99.90;;;;;;5032975;28;20055;-78
2023/06/20 01:28:44;;;;;;;17.23;12.07;;;18.60;99.90;;;;;;5032773;28;20049;-78
2023/06/20 01:31:16;;;;;;;16.07;13.23;;;18.70;99.90;;;;;;5032710;28;20053;-78
2023/06/20 01:33:44;;;;;;;18.87;14.77;;;18.60;99.90;;;;;;5032409;28;20045;-77
2023/06/20 01:36:11;;;;;;;18.60;14.83;;;18.60;99.90;;;;;;5032472;28;20055;-78
2023/06/20 01:38:39;;;;;;;17.93;13.47;;;18.60;99.90;;;;;;5031071;28;20057;-77
2023/06/20 01:41:06;;;;;;;17.73;14.40;;;18.60;99.90;;;;;;5032721;28;20051;-78
2023/06/20 01:43:34;;;;;;;21.47;15.00;;;18.60;99.90;;;;;;5031673;28;20052;-78
2023/06/20 01:46:03;;;;;;;19.50;15.53;;;18.60;99.90;;;;;;5032430;28;20099;-78
2023/06/20 01:48:32;;;;;;;15.43;13.73;;;18.60;99.90;;;;;;5032446;28;20057;-78
2023/06/20 01:51:00;;;;;;;18.43;14.93;;;18.50;99.90;;;;;;5032426;28;20084;-79
2023/06/20 01:53:27;;;;;;;19.37;14.07;;;18.50;99.90;;;;;;5032693;28;20050;-80
2023/06/20 01:55:55;;;;;;;18.20;14.57;;;18.50;99.90;;;;;;5031048;28;20041;-78
2023/06/20 01:58:22;;;;;;;16.83;14.67;;;18.50;99.90;;;;;;5031589;28;20053;-79
2023/06/20 02:00:48;;;;;;;18.03;13.80;;;18.50;99.90;;;;;;5032359;28;20115;-78
2023/06/20 02:03:16;;;;;;;17.73;13.33;;;18.50;99.90;;;;;;5014816;28;20049;-78
2023/06/20 02:05:43;;;;;;;15.33;11.90;;;18.50;99.90;;;;;;5030526;28;20064;-78
2023/06/20 02:08:11;;;;;;;17.53;12.77;;;18.50;99.90;;;;;;5032473;28;20057;-78
2023/06/20 02:10:38;;;;;;;14.67;11.97;;;18.50;99.90;;;;;;5032442;28;20187;-78
2023/06/20 02:13:03;;;;;;;15.17;11.57;;;18.50;99.90;;;;;;5032384;28;20551;-78
2023/06/20 02:15:30;;;;;;;14.40;12.17;;;18.50;99.90;;;;;;5030963;28;20049;-78
2023/06/20 02:17:56;;;;;;;16.93;12.77;;;18.40;99.90;;;;;;5030938;28;20053;-78
2023/06/20 02:20:22;;;;;;;15.37;12.20;;;18.50;99.90;;;;;;5032413;28;20507;-78
2023/06/20 02:22:50;;;;;;;17.90;12.90;;;18.50;99.90;;;;;;5031964;28;20049;-78
2023/06/20 02:25:31;;;;;;;15.60;11.67;;;18.50;99.90;;;;;;5032317;28;20473;-78
2023/06/20 02:27:58;;;;;;;16.10;11.30;;;18.50;99.90;;;;;;5031981;28;20128;-79
2023/06/20 02:30:27;;;;;;;14.63;11.33;;;18.40;99.90;;;;;;5032132;28;20045;-79
2023/06/20 02:32:57;;;;;;;18.93;11.97;;;18.50;99.90;;;;;;5030883;28;20054;-78
2023/06/20 02:35:24;;;;;;;13.07;10.00;;;18.40;99.90;;;;;;5032189;28;20488;-79
2023/06/20 02:37:54;;;;;;;14.17;11.13;;;18.40;99.90;;;;;;5031958;28;20123;-78
2023/06/20 02:40:23;;;;;;;14.17;9.97;;;18.40;99.90;;;;;;5031826;28;20060;-78
2023/06/20 02:42:49;;;;;;;13.57;10.63;;;18.40;99.90;;;;;;5031721;28;20064;-78
2023/06/20 02:45:16;;;;;;;15.13;10.87;;;18.40;99.90;;;;;;5031030;28;20054;-78
2023/06/20 02:48:03;;;;;;;13.17;9.70;;;18.40;99.90;;;;;;5032268;28;20089;-77
2023/06/20 02:50:59;;;;;;;16.83;11.00;;;18.50;99.90;;;;;;5033291;28;20057;-78
2023/06/20 02:53:33;;;;;;;12.73;10.57;;;18.40;99.90;;;;;;5030891;28;20071;-79
2023/06/20 02:56:06;;;;;;;14.37;10.53;;;18.40;99.90;;;;;;5035435;28;20381;-79
2023/06/20 02:58:34;;;;;;;16.23;9.63;;;18.40;99.90;;;;;;5035656;28;20405;-79
2023/06/20 03:01:01;;;;;;;13.63;9.73;;;18.40;99.90;;;;;;5033870;28;20496;-80
2023/06/20 03:03:34;;;;;;;15.50;10.10;;;18.40;99.90;;;;;;5034237;28;20049;-79
2023/06/20 03:06:01;;;;;;;15.43;10.33;;;18.30;99.90;;;;;;5035272;28;20129;-79
2023/06/20 03:08:30;;;;;;;14.93;10.27;;;18.30;99.90;;;;;;5035650;28;20085;-79
2023/06/20 03:10:57;;;;;;;13.63;10.67;;;18.30;99.90;;;;;;5034950;28;20496;-79
2023/06/20 03:13:23;;;;;;;13.67;10.47;;;18.30;99.90;;;;;;5034560;28;20056;-79
2023/06/20 03:15:52;;;;;;;11.80;8.83;;;18.30;99.90;;;;;;5017369;28;20113;-79
2023/06/20 03:18:19;;;;;;;13.33;10.07;;;18.30;99.90;;;;;;5035047;28;20485;-79
2023/06/20 03:20:45;;;;;;;11.87;9.07;;;18.30;99.90;;;;;;5035254;28;20053;-79
2023/06/20 03:23:12;;;;;;;11.43;8.90;;;18.30;99.90;;;;;;5035063;28;20041;-79
2023/06/20 03:25:38;;;;;;;13.40;8.53;;;18.30;99.90;;;;;;5035010;28;20033;-79
2023/06/20 03:28:04;;;;;;;11.17;8.73;;;18.30;99.90;;;;;;5034579;28;20404;-79
2023/06/20 03:30:29;;;;;;;12.07;8.37;;;18.30;99.90;;;;;;5033557;28;20401;-79
2023/06/20 03:32:55;;;;;;;13.80;9.07;;;18.40;99.90;;;;;;5034423;28;20053;-79
2023/06/20 03:35:21;;;;;;;13.10;8.93;;;18.30;99.90;;;;;;5033753;28;20562;-79
2023/06/20 03:37:46;;;;;;;15.57;9.53;;;18.30;99.90;;;;;;5033761;28;20049;-79
2023/06/20 03:40:12;;;;;;;12.17;8.03;;;18.40;99.90;;;;;;5034244;28;20420;-79
2023/06/20 03:42:38;;;;;;;10.43;8.20;;;18.40;99.90;;;;;;5034688;28;20084;-79
2023/06/20 03:45:04;;;;;;;11.53;8.70;;;18.40;99.90;;;;;;5033220;28;20329;-80
2023/06/20 03:47:30;;;;;;;11.30;8.90;;;18.40;99.90;;;;;;5033226;28;20064;-80
2023/06/20 03:49:56;;;;;;;13.27;8.27;;;18.40;99.90;;;;;;5034343;28;20126;-79
2023/06/20 03:52:21;;;;;;;11.70;9.13;;;18.40;99.90;;;;;;5034452;28;20523;-80
2023/06/20 03:54:47;;;;;;;12.07;8.40;;;18.40;99.90;;;;;;5034243;28;20081;-80
2023/06/20 03:57:13;;;;;;;11.87;8.43;;;18.40;99.90;;;;;;5034074;28;20136;-79
2023/06/20 03:59:39;;;;;;;13.50;8.60;;;18.40;99.90;;;;;;5016696;28;20131;-80
2023/06/20 04:02:04;;;;;;;12.00;8.47;;;18.40;99.90;;;;;;5033438;28;20049;-80
2023/06/20 04:04:30;;;;;;;11.53;8.10;;;18.50;99.90;;;;;;5033353;28;20392;-80
2023/06/20 04:06:56;;;;;;;10.67;8.13;;;18.50;99.90;;;;;;5016627;28;20060;-79
2023/06/20 04:09:26;;;;;;;13.87;8.50;;;18.50;99.90;;;;;;5034171;28;20397;-80
2023/06/20 04:11:53;;;;;;;12.03;7.83;;;18.50;99.90;;;;;;5033893;28;20045;-79
2023/06/20 04:14:18;;;;;;;12.20;8.40;;;18.50;99.90;;;;;;5032923;28;20071;-79
2023/06/20 04:16:47;;;;;;;12.17;8.40;;;18.50;99.90;;;;;;5034082;28;20045;-80
2023/06/20 04:19:14;;;;;;;9.93;7.43;;;18.50;99.90;;;;;;5033738;28;20050;-80
2023/06/20 04:21:40;;;;;;;10.47;7.67;;;18.60;99.90;;;;;;5034048;28;20383;-80
2023/06/20 04:24:06;;;;;;;12.33;8.23;;;18.60;99.90;;;;;;5033601;28;20041;-80
2023/06/20 04:26:32;;;;;;;13.07;7.67;;;18.60;99.90;;;;;;5033723;28;20045;-80
2023/06/20 04:28:58;;;;;;;10.17;7.93;;;18.60;99.90;;;;;;5032191;28;20489;-80
2023/06/20 04:31:24;;;;;;;12.07;7.57;;;18.60;99.90;;;;;;5033852;28;20041;-80
2023/06/20 04:33:50;;;;;;;10.57;7.73;;;18.70;99.90;;;;;;5032766;28;20128;-81
2023/06/20 04:36:16;;;;;;;10.50;8.10;;;18.60;99.90;;;;;;5033296;28;20136;-80
2023/06/20 04:38:44;;;;;;;12.67;8.37;;;18.70;99.90;;;;;;5032280;28;20128;-80
2023/06/20 04:41:10;;;;;;;10.87;7.67;;;18.70;99.90;;;;;;5033069;28;20042;-80
2023/06/20 04:43:37;;;;;;;12.57;8.10;;;18.70;99.90;;;;;;5032248;28;20140;-79
2023/06/20 04:46:04;;;;;;;11.80;8.10;;;18.70;99.90;;;;;;5033324;28;20124;-80
2023/06/20 04:48:30;;;;;;;12.47;8.00;;;18.80;99.90;;;;;;5015971;28;20076;-80
2023/06/20 04:50:57;;;;;;;10.63;8.70;;;18.80;99.90;;;;;;5015654;28;20060;-79
2023/06/20 04:53:25;;;;;;;11.80;8.37;;;18.80;99.90;;;;;;5032041;28;20518;-80
2023/06/20 04:55:52;;;;;;;10.60;7.80;;;18.80;99.90;;;;;;5033157;28;20045;-80
2023/06/20 04:58:17;;;;;;;10.80;8.20;;;18.90;99.90;;;;;;5031872;28;20057;-80
2023/06/20 05:00:43;;;;;;;9.77;7.93;;;18.90;99.90;;;;;;5031657;28;20060;-80
2023/06/20 05:03:09;;;;;;;12.17;8.13;;;18.90;99.90;;;;;;5031706;28;20053;-80
2023/06/20 05:05:35;;;;;;;10.50;7.97;;;18.90;99.90;;;;;;5033355;28;20049;-80
2023/06/20 05:08:00;;;;;;;11.43;7.97;;;18.90;99.90;;;;;;5031588;28;20484;-79
2023/06/20 05:10:26;;;;;;;10.47;7.80;;;18.90;99.90;;;;;;5032795;28;20046;-80
2023/06/20 05:12:52;;;;;;;10.73;8.37;;;19.00;99.90;;;;;;5014674;28;20096;-79
2023/06/20 05:15:23;;;;;;;13.60;9.20;;;19.00;99.90;;;;;;5032739;28;20048;-79
2023/06/20 05:17:53;;;;;;;13.23;8.27;;;19.10;99.90;;;;;;5031918;28;20500;-79
2023/06/20 05:20:19;;;;;;;10.40;8.97;;;19.10;99.90;;;;;;5032722;28;20857;-79
2023/06/20 05:22:46;;;;;;;11.17;8.80;;;19.10;99.90;;;;;;5031676;28;20088;-80
2023/06/20 05:25:12;;;;;;;12.67;8.47;;;19.10;99.90;;;;;;5014985;28;20107;-79
2023/06/20 05:27:38;;;;;;;11.20;9.20;;;19.10;99.90;;;;;;5032797;28;20053;-80
2023/06/20 05:30:05;;;;;;;11.27;8.57;;;19.10;99.90;;;;;;5032670;28;20049;-79
2023/06/20 05:32:31;;;;;;;11.40;8.33;;;19.20;99.90;;;;;;5033053;28;20481;-79
2023/06/20 05:34:56;;;;;;;10.67;8.37;;;19.20;99.90;;;;;;5032622;28;20128;-79
2023/06/20 05:37:22;;;;;;;10.77;8.53;;;19.20;99.90;;;;;;5031389;28;20041;-79
2023/06/20 05:39:48;;;;;;;10.77;8.47;;;19.30;99.90;;;;;;5032510;28;20049;-79
2023/06/20 05:42:13;;;;;;;10.03;7.90;;;19.30;99.90;;;;;;5032151;28;20042;-79
2023/06/20 05:44:39;;;;;;;11.97;8.73;;;19.30;99.90;;;;;;5032662;28;20053;-79
2023/06/20 05:47:05;;;;;;;12.03;9.40;;;19.30;99.90;;;;;;5032458;28;20050;-79
2023/06/20 05:49:32;;;;;;;13.40;9.03;;;19.40;99.90;;;;;;5031646;28;20045;-80
2023/06/20 05:51:57;;;;;;;11.13;9.00;;;19.40;99.90;;;;;;5032532;28;20042;-80
2023/06/20 05:54:24;;;;;;;11.80;8.97;;;19.40;99.90;;;;;;5031209;28;20136;-80
2023/06/20 05:56:51;;;;;;;11.50;8.90;;;19.50;99.90;;;;;;5031434;28;20041;-80
2023/06/20 05:59:17;;;;;;;10.30;8.77;;;19.50;99.90;;;;;;5031125;28;20058;-80
2023/06/20 06:01:45;;;;;;;11.17;8.60;;;19.60;99.90;;;;;;5015481;28;20045;-80
2023/06/20 06:04:11;;;;;;;12.70;8.90;;;19.60;99.90;;;;;;5030908;28;20119;-79
2023/06/20 06:06:37;;;;;;;14.20;9.43;;;19.80;99.90;;;;;;5031419;28;20480;-79
2023/06/20 06:09:03;;;;;;;11.67;9.10;;;19.90;99.90;;;;;;5031128;28;20045;-79
2023/06/20 06:11:29;;;;;;;12.20;9.47;;;20.20;99.90;;;;;;5032159;28;20501;-80
2023/06/20 06:13:55;;;;;;;13.37;9.17;;;20.40;99.90;;;;;;5031537;28;20057;-80
2023/06/20 06:16:21;;;;;;;10.23;8.57;;;20.60;99.90;;;;;;5030821;28;20125;-79
2023/06/20 06:18:47;;;;;;;12.73;9.40;;;21.10;99.90;;;;;;5031594;28;20076;-79
2023/06/20 06:21:13;;;;;;;13.93;9.30;;;21.50;99.90;;;;;;5031049;28;20084;-79
2023/06/20 06:23:38;;;;;;;12.50;8.67;;;22.30;99.90;;;;;;5014890;28;20049;-79
2023/06/20 06:26:05;;;;;;;11.60;8.40;;;23.20;99.90;;;;;;5035945;28;20041;-79
2023/06/20 06:28:30;;;;;;;10.13;8.00;;;23.30;99.90;;;;;;5035796;28;20049;-79
2023/06/20 06:31:00;;;;;;;10.17;8.27;;;23.20;99.90;;;;;;5036011;28;20102;-80
2023/06/20 06:33:28;;;;;;;10.53;8.53;;;23.00;99.90;;;;;;5034424;28;20136;-80
2023/06/20 06:35:55;;;;;;;11.70;8.80;;;22.80;99.90;;;;;;5035882;28;20049;-79
2023/06/20 06:38:22;;;;;;;12.93;9.27;;;22.70;99.90;;;;;;5034517;28;20057;-80
2023/06/20 06:40:48;;;;;;;16.23;9.10;;;22.60;99.90;;;;;;5035948;28;20135;-80
2023/06/20 06:43:14;;;;;;;10.47;8.73;;;22.50;99.90;;;;;;5034558;28;20049;-80
2023/06/20 06:45:40;;;;;;;12.70;8.60;;;22.50;99.90;;;;;;5034763;28;20051;-80
2023/06/20 06:48:06;;;;;;;11.53;9.30;;;22.40;99.90;;;;;;5034454;28;20407;-80
2023/06/20 06:50:32;;;;;;;10.20;8.83;;;22.20;99.90;;;;;;5017814;28;20128;-80
2023/06/20 06:52:58;;;;;;;10.53;9.33;;;22.10;99.90;;;;;;4985551;28;20049;-80
2023/06/20 06:55:24;;;;;;;12.27;8.83;;;22.00;99.90;;;;;;5035324;28;20048;-80
2023/06/20 06:57:49;;;;;;;12.60;9.93;;;21.90;99.90;;;;;;5035587;28;20056;-74
2023/06/20 07:00:16;;;;;;;11.17;8.90;;;21.80;99.90;;;;;;5017417;28;20061;-82
2023/06/20 07:02:43;;;;;;;10.10;9.00;;;21.70;99.90;;;;;;5034473;28;20056;-82
2023/06/20 07:05:09;;;;;;;11.67;9.43;;;21.80;99.90;;;;;;5035460;28;20053;-80
2023/06/20 07:07:34;;;;;;;12.10;9.47;;;21.80;99.90;;;;;;5035007;28;20057;-76
2023/06/20 07:10:00;;;;;;;11.17;9.40;;;21.90;99.90;;;;;;5035546;28;20067;-77
2023/06/20 07:12:26;;;;;;;12.47;9.67;;;22.00;99.90;;;;;;5035057;28;20392;-78
2023/06/20 07:14:56;;;;;;;10.87;9.47;;;22.10;99.90;;;;;;5035221;28;20052;-77
2023/06/20 07:17:23;;;;;;;13.10;10.33;;;22.20;99.90;;;;;;5017411;28;20056;-76
2023/06/20 07:19:49;;;;;;;13.33;10.30;;;22.20;99.90;;;;;;5035017;28;20485;-76
2023/06/20 07:22:15;;;;;;;10.53;9.53;;;22.10;99.90;;;;;;5017212;28;20111;-76
2023/06/20 07:24:41;;;;;;;15.60;9.27;;;22.10;99.90;;;;;;5034169;28;20053;-76
2023/06/20 07:27:06;;;;;;;10.80;9.70;;;22.20;99.90;;;;;;5034784;28;20401;-78
2023/06/20 07:29:32;;;;;;;11.20;9.10;;;22.20;99.90;;;;;;5034602;28;20049;-76
2023/06/20 07:31:58;;;;;;;14.10;9.97;;;22.10;99.90;;;;;;5035068;28;20128;-76
2023/06/20 07:34:23;;;;;;;10.87;9.60;;;22.00;99.90;;;;;;5034506;28;20068;-75
2023/06/20 07:36:49;;;;;;;11.43;10.13;;;22.00;99.90;;;;;;5033780;28;20128;-76
2023/06/20 07:39:15;;;;;;;12.13;9.73;;;21.90;99.90;;;;;;5033577;28;20053;-76
2023/06/20 07:41:40;;;;;;;11.80;10.20;;;21.90;99.90;;;;;;5033808;28;20107;-77
2023/06/20 07:44:08;;;;;;;14.63;11.17;;;21.90;99.90;;;;;;5034745;28;20124;-76
2023/06/20 07:46:33;;;;;;;17.77;10.80;;;21.80;99.90;;;;;;5034384;28;20041;-79
2023/06/20 07:48:59;;;;;;;14.40;10.13;;;21.90;99.90;;;;;;5017044;28;20049;-76
2023/06/20 07:51:25;;;;;;;15.37;11.10;;;21.90;99.90;;;;;;5034055;28;20110;-76
2023/06/20 07:53:50;;;;;;;13.40;10.43;;;21.90;99.90;;;;;;5033407;28;20473;-76
2023/06/20 07:56:16;;;;;;;10.60;9.43;;;21.90;99.90;;;;;;5034279;28;20049;-74
2023/06/20 07:58:44;;;;;;;13.73;10.90;;;21.90;99.90;;;;;;5034387;28;20485;-77
2023/06/20 08:01:12;;;;;;;12.77;10.30;;;21.90;99.90;;;;;;5032951;28;20057;-76
2023/06/20 08:03:38;;;;;;;10.77;9.40;;;22.00;99.90;;;;;;5033014;28;20381;-76
2023/06/20 08:06:04;;;;;;;12.50;9.83;;;22.10;99.90;;;;;;5034145;28;20049;-76
2023/06/20 08:08:29;;;;;;;15.97;10.63;;;22.20;99.90;;;;;;5032743;28;20045;-76
2023/06/20 08:10:55;;;;;;;12.33;10.53;;;22.30;99.90;;;;;;5033145;28;20151;-77
2023/06/20 08:13:21;;;;;;;15.33;10.10;;;22.50;99.90;;;;;;5033714;28;20049;-77
2023/06/20 08:15:47;;;;;;;13.83;10.50;;;23.00;99.90;;;;;;5032726;28;20099;-77
2023/06/20 08:18:12;;;;;;;11.80;9.00;;;23.50;99.90;;;;;;5032815;28;20056;-78
2023/06/20 08:20:38;;;;;;;10.80;9.40;;;23.90;99.90;;;;;;5033592;28;20045;-77
2023/06/20 08:23:04;;;;;;;12.20;10.50;;;24.10;99.90;;;;;;5034227;28;20052;-78
2023/06/20 08:25:29;;;;;;;13.97;10.43;;;24.30;99.90;;;;;;5016050;28;20488;-77
2023/06/20 08:27:55;;;;;;;12.83;9.97;;;24.60;99.90;;;;;;5033030;28;20484;-77
2023/06/20 08:30:21;;;;;;;11.70;9.87;;;24.90;99.90;;;;;;5033537;28;20124;-77
2023/06/20 08:32:47;;;;;;;9.53;8.53;;;24.90;99.90;;;;;;5033656;28;20498;-78
2023/06/20 08:35:13;;;;;;;11.30;8.33;;;24.80;99.90;;;;;;5033481;28;20045;-77
2023/06/20 08:37:40;;;;;;;12.37;9.67;;;25.10;99.90;;;;;;5032498;28;20469;-79
2023/06/20 08:40:10;;;;;;;10.97;8.57;;;25.10;99.90;;;;;;5033818;28;20053;-78
2023/06/20 08:42:35;;;;;;;10.30;8.70;;;25.00;99.90;;;;;;5033114;28;20051;-77
2023/06/20 08:45:02;;;;;;;13.80;8.17;;;24.80;99.90;;;;;;5033553;28;20117;-77
2023/06/20 08:47:28;;;;;;;15.13;9.40;;;24.60;99.90;;;;;;5032949;28;20071;-75
2023/06/20 08:49:54;;;;;;;9.77;8.30;;;24.50;99.90;;;;;;5033430;28;20041;-74
2023/06/20 08:52:27;;;;;;;9.63;7.73;;;24.40;99.90;;;;;;5031960;28;20049;-75
2023/06/20 08:54:53;;;;;;;10.30;7.57;;;24.50;99.90;;;;;;5032797;28;20037;-76
2023/06/20 08:57:20;;;;;;;10.37;7.67;;;24.50;99.90;;;;;;5032767;28;20050;-75
2023/06/20 08:59:46;;;;;;;9.03;7.70;;;24.90;99.90;;;;;;5032308;28;20512;-76
2023/06/20 09:02:12;;;;;;;10.33;8.07;;;25.20;99.90;;;;;;5043288;28;20137;-75
2023/06/20 09:04:38;;;;;;;12.33;8.17;;;25.40;99.90;;;;;;5032922;28;20123;-76
2023/06/20 09:07:21;;;;;;;11.07;8.03;;;25.60;99.90;;;;;;5033214;28;20053;-75
2023/06/20 09:09:47;;;;;;;8.57;7.67;;;25.60;99.90;;;;;;5031967;28;20107;-75
2023/06/20 09:12:14;;;;;;;11.20;8.10;;;25.60;99.90;;;;;;5033082;28;20041;-75
2023/06/20 09:14:40;;;;;;;9.53;8.33;;;25.60;99.90;;;;;;5048255;28;20056;-75
2023/06/20 09:17:08;;;;;;;11.10;7.83;;;25.60;99.90;;;;;;5032323;28;20053;-76
2023/06/20 09:19:45;;;;;;;8.47;7.27;;;25.60;99.90;;;;;;5015275;28;20088;-75
2023/06/20 09:22:12;;;;;;;9.20;6.93;;;25.70;99.90;;;;;;5031672;28;20056;-76
2023/06/20 09:24:45;;;;;;;9.37;7.03;;;25.80;99.90;;;;;;5032506;28;20041;-76
2023/06/20 09:27:11;;;;;;;10.27;7.63;;;26.10;99.90;;;;;;5031757;28;20057;-76
2023/06/20 09:30:00;;;;;;;10.50;7.83;;;26.20;99.90;;;;;;5032313;28;20057;-76
2023/06/20 09:32:26;;;;;;;9.13;7.97;;;26.20;99.90;;;;;;5033019;28;20115;-76
2023/06/20 09:34:52;;;;;;;8.70;7.80;;;26.20;99.90;;;;;;5032107;28;20076;-76
2023/06/20 09:37:18;;;;;;;8.40;7.43;;;26.10;99.90;;;;;;5032713;28;20077;-76
2023/06/20 09:39:44;;;;;;;10.53;8.30;;;26.00;99.90;;;;;;5032279;28;20044;-76
2023/06/20 09:42:13;;;;;;;8.63;7.67;;;26.10;99.90;;;;;;5032836;28;20045;-76
2023/06/20 09:44:40;;;;;;;10.60;7.57;;;26.10;99.90;;;;;;5032467;28;20115;-76
2023/06/20 09:47:07;;;;;;;11.97;10.10;;;26.10;99.90;;;;;;5032919;28;20041;-76
2023/06/20 09:49:35;;;;;;;10.57;8.50;;;26.10;99.90;;;;;;5032498;28;20042;-76
2023/06/20 09:52:07;;;;;;;9.50;8.07;;;26.20;99.90;;;;;;5031466;28;20076;-75
2023/06/20 09:54:44;;;;;;;9.23;6.60;;;26.20;99.90;;;;;;5032783;28;20163;-75
2023/06/20 09:57:15;;;;;;;12.33;7.60;;;26.10;99.90;;;;;;5032633;28;20046;-76
2023/06/20 09:59:42;;;;;;;9.77;7.70;;;26.10;99.90;;;;;;5033545;28;20139;-75
2023/06/20 10:02:09;;;;;;;9.63;7.77;;;25.90;99.90;;;;;;5035410;28;20058;-75
2023/06/20 10:04:42;;;;;;;9.00;7.20;;;25.90;99.90;;;;;;5036264;28;20053;-75
2023/06/20 10:07:12;;;;;;;8.53;7.63;;;25.90;99.90;;;;;;5019812;28;20477;-76
2023/06/20 10:09:41;;;;;;;9.00;8.00;;;25.90;99.90;;;;;;5036366;28;20054;-77
2023/06/20 10:12:09;;;;;;;11.67;8.30;;;25.90;99.90;;;;;;5018768;28;20140;-75
2023/06/20 10:14:35;;;;;;;9.97;8.90;;;25.90;99.90;;;;;;5035552;28;20148;-76
2023/06/20 10:17:09;;;;;;;9.50;7.23;;;25.90;99.90;;;;;;5035087;28;20111;-76
2023/06/20 10:20:07;;;;;;;7.63;6.85;;;26.00;99.90;;;;;;5034975;28;20049;-75
2023/06/20 10:22:38;;;;;;;9.20;8.10;;;26.10;99.90;;;;;;5012667;28;20065;-75
2023/06/20 10:25:13;;;;;;;11.63;8.27;;;26.10;99.90;;;;;;5036073;28;20092;-76
2023/06/20 10:27:44;;;;;;;9.93;6.80;;;26.10;99.90;;;;;;5034956;28;20219;-76
2023/06/20 10:30:12;;;;;;;8.20;7.00;;;26.20;99.90;;;;;;5036183;28;20072;-75
2023/06/20 10:33:07;;;;;;;8.57;7.33;;;26.20;99.90;;;;;;5035017;28;20492;-71
2023/06/20 10:35:32;;;;;;;9.13;6.53;;;26.40;99.90;;;;;;5035669;28;20053;-76
2023/06/20 10:38:08;;;;;;;7.97;6.10;;;26.30;99.90;;;;;;5035549;28;20076;-73
2023/06/20 10:40:37;;;;;;;8.73;6.10;;;26.30;99.70;;;;;;5035062;28;20362;-70
2023/06/20 10:43:15;;;;;;;7.13;6.13;;;26.30;99.10;;;;;;5034873;28;20096;-69
2023/06/20 10:45:53;;;;;;;9.77;6.37;;;26.30;99.10;;;;;;5035559;28;20124;-72
2023/06/20 10:48:20;;;;;;;8.27;6.00;;;26.30;98.90;;;;;;5035668;28;20068;-72
2023/06/20 10:50:46;;;;;;;7.00;5.70;;;26.30;99.30;;;;;;5035117;28;20493;-71
2023/06/20 10:53:13;;;;;;;9.43;6.77;;;26.50;99.70;;;;;;5034741;28;20103;-72
2023/06/20 10:55:39;;;;;;;6.83;5.83;;;26.50;99.20;;;;;;5035268;28;20041;-71
2023/06/20 10:58:05;;;;;;;9.10;5.13;;;26.60;98.70;;;;;;5034339;28;20053;-72
2023/06/20 11:00:31;;;;;;;8.20;5.23;;;26.60;99.00;;;;;;5035544;28;20060;-72
2023/06/20 11:02:57;;;;;;;6.93;5.17;;;26.60;98.70;;;;;;5035233;28;20232;-68
2023/06/20 11:05:29;;;;;;;8.27;5.23;;;26.70;98.20;;;;;;5035313;28;20046;-70
2023/06/20 11:08:05;;;;;;;8.13;4.87;;;26.70;97.80;;;;;;5035203;28;20057;-71
2023/06/20 11:10:40;;;;;;;11.13;5.77;;;26.70;97.10;;;;;;5033056;28;20643;-70
2023/06/20 11:13:06;;;;;;;10.37;6.33;;;26.60;97.80;;;;;;5034482;28;20119;-70
2023/06/20 11:15:35;;;;;;;10.10;6.97;;;26.70;98.20;;;;;;5034955;28;20426;-71
2023/06/20 11:18:08;;;;;;;7.27;4.97;;;26.70;98.60;;;;;;5034936;28;20053;-69
2023/06/20 11:20:36;;;;;;;6.20;4.50;;;26.70;98.50;;;;;;5034347;28;20393;-70
2023/06/20 11:23:10;;;;;;;6.53;4.63;;;26.80;98.70;;;;;;5034997;28;20132;-71
2023/06/20 11:25:37;;;;;;;7.18;4.70;;;26.90;97.40;;;;;;5035111;28;20520;-68
2023/06/20 11:28:04;;;;;;;6.63;4.83;;;26.90;97.10;;;;;;5034619;28;20505;-68
2023/06/20 11:30:32;;;;;;;6.83;4.50;;;26.90;97.20;;;;;;5034921;28;20128;-69
2023/06/20 11:33:04;;;;;;;8.00;4.60;;;26.90;96.80;;;;;;5034095;28;20481;-67
2023/06/20 11:35:42;;;;;;;6.13;4.53;;;27.00;96.90;;;;;;5034747;28;20046;-68
2023/06/20 11:38:13;;;;;;;6.77;4.70;;;27.10;95.30;;;;;;5034677;28;20051;-71
2023/06/20 11:40:40;;;;;;;7.47;4.77;;;27.20;95.50;;;;;;5034603;28;20048;-71
2023/06/20 11:43:06;;;;;;;6.17;5.10;;;27.20;95.40;;;;;;5033209;28;20143;-71
2023/06/20 11:45:33;;;;;;;7.13;4.30;;;27.20;94.90;;;;;;5034191;28;20500;-69
2023/06/20 11:48:13;;;;;;;6.50;4.63;;;27.20;95.00;;;;;;5032787;28;20046;-69
2023/06/20 11:50:43;;;;;;;6.40;5.10;;;27.30;94.10;;;;;;5033978;28;20049;-71
2023/06/20 11:53:32;;;;;;;8.57;5.20;;;27.20;93.40;;;;;;5033729;28;20049;-73
2023/06/20 11:56:07;;;;;;;6.90;4.77;;;27.20;94.30;;;;;;5031761;28;20045;-71
2023/06/20 11:58:36;;;;;;;6.30;4.83;;;27.20;93.10;;;;;;5031285;28;20412;-71
2023/06/20 12:01:17;;;;;;;8.03;5.10;;;27.20;93.20;;;;;;5015780;28;20057;-71
2023/06/20 12:03:45;;;;;;;10.43;5.33;;;27.20;93.40;;;;;;5034070;28;20077;-71
2023/06/20 12:06:31;;;;;;;7.43;6.00;;;27.30;93.20;;;;;;5033687;28;20128;-71
2023/06/20 12:09:11;;;;;;;8.73;5.80;;;27.30;92.60;;;;;;5032546;28;20099;-71
2023/06/20 12:11:54;;;;;;;7.20;5.57;;;27.20;93.50;;;;;;5032452;28;20407;-71
2023/06/20 12:14:23;;;;;;;8.00;6.20;;;27.30;93.80;;;;;;5032865;28;20049;-71
2023/06/20 12:16:50;;;;;;;8.60;5.53;;;27.30;94.10;;;;;;5032784;28;20041;-71
2023/06/20 12:19:17;;;;;;;7.10;5.43;;;27.40;94.50;;;;;;5016221;28;20091;-70
2023/06/20 12:21:43;;;;;;;9.03;5.70;;;27.40;94.40;;;;;;5032676;28;20049;-70
2023/06/20 12:24:10;;;;;;;10.17;5.70;;;27.50;94.20;;;;;;5032283;28;20049;-72
2023/06/20 12:26:36;;;;;;;9.27;6.10;;;27.50;94.20;;;;;;5016226;28;20401;-67
2023/06/20 12:29:03;;;;;;;6.67;5.23;;;27.60;93.90;;;;;;5033517;28;20045;-67
2023/06/20 12:31:29;;;;;;;10.50;5.90;;;27.60;93.60;;;;;;5032437;28;20485;-67
2023/06/20 12:33:54;;;;;;;7.80;5.47;;;27.60;93.60;;;;;;5032752;28;20064;-67
2023/06/20 12:36:20;;;;;;;6.60;5.10;;;27.60;93.20;;;;;;5033018;28;20103;-67
2023/06/20 12:38:47;;;;;;;9.37;6.20;;;27.70;93.60;;;;;;5033151;28;20051;-67
2023/06/20 12:41:13;;;;;;;8.00;5.83;;;27.80;93.50;;;;;;5033233;28;20042;-67
2023/06/20 12:43:40;;;;;;;8.90;5.60;;;27.90;92.90;;;;;;5033831;28;20100;-67
2023/06/20 12:46:05;;;;;;;8.37;5.77;;;28.00;92.50;;;;;;5033378;28;20054;-72